createdAt,value
2023-07-10T00:00:55.827Z,84.54
2023-07-10T00:03:23.827Z,84.59
2023-07-10T00:05:51.727Z,84.75
2023-07-10T00:08:19.598Z,84.95
2023-07-10T00:10:48.025Z,85.38
2023-07-10T00:13:16.209Z,85.47
2023-07-10T00:15:45.475Z,85.41
2023-07-10T00:18:16.522Z,85.68
2023-07-10T00:20:46.232Z,86.14
2023-07-10T00:23:14.462Z,86.00
2023-07-10T00:25:42.667Z,86.11
2023-07-10T00:28:16.379Z,86.85
2023-07-10T00:30:47.815Z,86.38
2023-07-10T00:33:16.754Z,87.12
2023-07-10T00:35:44.957Z,86.95
2023-07-10T00:38:19.785Z,87.07
2023-07-10T00:40:48.406Z,87.07
2023-07-10T00:43:25.308Z,87.36
2023-07-10T00:45:55.528Z,87.57
2023-07-10T00:48:31.286Z,87.35
2023-07-10T00:51:00.422Z,87.60
2023-07-10T00:53:34.974Z,87.48
2023-07-10T00:56:03.532Z,87.39
2023-07-10T00:58:34.743Z,87.22
2023-07-10T01:01:06.770Z,87.00
2023-07-10T01:03:35.089Z,87.11
2023-07-10T01:06:10.191Z,87.12
2023-07-10T01:08:38.512Z,86.96
2023-07-10T01:11:06.316Z,87.01
2023-07-10T01:13:34.429Z,87.60
2023-07-10T01:16:04.435Z,87.17
2023-07-10T01:18:32.997Z,86.72
2023-07-10T01:21:11.622Z,87.21
2023-07-10T01:23:39.597Z,86.56
2023-07-10T01:26:07.597Z,86.80
2023-07-10T01:28:36.023Z,87.16
2023-07-10T01:31:08.448Z,87.56
2023-07-10T01:33:38.855Z,86.99
2023-07-10T01:36:09.046Z,87.23
2023-07-10T01:38:39.348Z,87.08
2023-07-10T01:41:17.325Z,87.46
2023-07-10T01:43:45.170Z,87.52
2023-07-10T01:46:20.931Z,87.27
2023-07-10T01:48:49.656Z,86.99
2023-07-10T01:51:19.542Z,86.72
2023-07-10T01:53:47.873Z,86.84
2023-07-10T01:56:17.709Z,87.10
2023-07-10T01:58:45.546Z,87.59
2023-07-10T02:01:13.379Z,86.98
2023-07-10T02:03:41.291Z,87.23
2023-07-10T02:06:09.067Z,87.17
2023-07-10T02:08:38.319Z,87.55
2023-07-10T02:11:06.237Z,87.69
2023-07-10T02:13:34.013Z,87.02
2023-07-10T02:16:04.308Z,87.76
2023-07-10T02:18:32.325Z,87.35
2023-07-10T02:21:00.087Z,87.06
2023-07-10T02:23:27.937Z,87.04
2023-07-10T02:25:57.554Z,87.04
2023-07-10T02:28:25.324Z,87.64
2023-07-10T02:30:53.868Z,87.90
2023-07-10T02:33:21.718Z,87.56
2023-07-10T02:35:49.664Z,87.80
2023-07-10T02:38:17.644Z,87.61
2023-07-10T02:40:45.837Z,87.51
2023-07-10T02:43:14.973Z,87.85
2023-07-10T02:45:42.752Z,87.68
2023-07-10T02:48:10.614Z,87.49
2023-07-10T02:50:38.342Z,87.42
2023-07-10T02:53:06.175Z,87.43
2023-07-10T02:55:34.023Z,87.46
2023-07-10T02:58:02.084Z,87.39
2023-07-10T03:00:31.380Z,87.40
2023-07-10T03:02:59.140Z,87.30
2023-07-10T03:05:27.676Z,87.02
2023-07-10T03:07:55.660Z,87.21
2023-07-10T03:10:23.748Z,86.96
2023-07-10T03:12:51.543Z,87.28
2023-07-10T03:15:19.544Z,87.18
2023-07-10T03:17:49.582Z,86.72
2023-07-10T03:20:17.493Z,86.88
2023-07-10T03:22:45.312Z,86.92
2023-07-10T03:25:13.115Z,86.54
2023-07-10T03:27:40.899Z,86.70
2023-07-10T03:30:09.999Z,86.46
2023-07-10T03:32:37.755Z,86.42
2023-07-10T03:35:08.233Z,86.13
2023-07-10T03:37:36.034Z,86.06
2023-07-10T03:40:04.298Z,86.02
2023-07-10T03:42:32.714Z,85.72
2023-07-10T03:45:00.454Z,85.33
2023-07-10T03:47:28.587Z,85.76
2023-07-10T03:49:56.462Z,85.34
2023-07-10T03:52:25.664Z,85.66
2023-07-10T03:54:53.430Z,85.48
2023-07-10T03:57:21.238Z,85.25
2023-07-10T03:59:48.983Z,85.15
2023-07-10T04:02:16.874Z,85.04
2023-07-10T04:04:44.604Z,84.42
2023-07-10T04:07:12.467Z,84.26
2023-07-10T04:09:41.619Z,84.29
2023-07-10T04:12:10.281Z,84.71
2023-07-10T04:14:39.382Z,84.47
2023-07-10T04:17:08.102Z,84.31
2023-07-10T04:19:35.898Z,84.61
2023-07-10T04:22:03.682Z,84.39
2023-07-10T04:24:31.507Z,84.81
2023-07-10T04:27:00.753Z,85.05
2023-07-10T04:29:28.647Z,85.43
2023-07-10T04:31:56.515Z,84.95
2023-07-10T04:34:24.494Z,85.10
2023-07-10T04:36:52.233Z,84.82
2023-07-10T04:39:20.077Z,84.93
2023-07-10T04:41:47.902Z,84.32
2023-07-10T04:44:17.092Z,84.38
2023-07-10T04:46:44.945Z,83.92
2023-07-10T04:49:12.798Z,84.36
2023-07-10T04:51:40.602Z,84.45
2023-07-10T04:54:09.410Z,83.99
2023-07-10T04:56:37.829Z,83.50
2023-07-10T04:59:05.603Z,84.26
2023-07-10T05:01:35.032Z,83.74
2023-07-10T05:04:03.500Z,83.27
2023-07-10T05:06:31.792Z,83.73
2023-07-10T05:09:00.985Z,83.11
2023-07-10T05:11:30.322Z,82.80
2023-07-10T05:13:58.224Z,82.53
2023-07-10T05:16:26.679Z,82.46
2023-07-10T05:18:56.098Z,82.20
2023-07-10T05:21:23.933Z,81.50
2023-07-10T05:23:51.783Z,81.42
2023-07-10T05:26:20.772Z,81.61
2023-07-10T05:28:48.918Z,82.17
2023-07-10T05:31:16.855Z,81.35
2023-07-10T05:33:44.866Z,80.68
2023-07-10T05:36:17.370Z,80.40
2023-07-10T05:38:49.186Z,80.10
2023-07-10T05:41:17.463Z,79.90
2023-07-10T05:43:45.253Z,79.84
2023-07-10T05:46:13.416Z,79.87
2023-07-10T05:48:41.284Z,80.48
2023-07-10T05:51:09.070Z,79.83
2023-07-10T05:53:38.239Z,79.72
2023-07-10T05:56:06.840Z,79.24
2023-07-10T05:58:36.386Z,79.81
2023-07-10T06:01:04.685Z,79.92
2023-07-10T06:03:35.286Z,79.45
2023-07-10T06:06:05.252Z,79.25
2023-07-10T06:08:34.394Z,78.25
2023-07-10T06:11:03.877Z,78.83
2023-07-10T06:13:32.122Z,77.97
2023-07-10T06:16:01.648Z,78.13
2023-07-10T06:18:29.550Z,77.53
2023-07-10T06:20:58.693Z,78.13
2023-07-10T06:23:27.899Z,78.20
2023-07-10T06:25:56.384Z,79.02
2023-07-10T06:28:25.686Z,78.02
2023-07-10T06:30:58.542Z,78.44
2023-07-10T06:33:27.078Z,77.77
2023-07-10T06:35:54.989Z,77.92
2023-07-10T06:38:23.121Z,78.64
2023-07-10T06:40:51.637Z,77.65
2023-07-10T06:43:21.310Z,77.81
2023-07-10T06:45:50.849Z,77.61
2023-07-10T06:48:19.079Z,77.06
2023-07-10T06:50:48.759Z,77.04
2023-07-10T06:53:25.933Z,77.70
2023-07-10T06:55:56.175Z,77.47
2023-07-10T06:58:24.718Z,76.14
2023-07-10T07:00:54.196Z,76.61
2023-07-10T07:03:22.849Z,75.44
2023-07-10T07:05:50.851Z,74.63
2023-07-10T07:08:19.406Z,74.56
2023-07-10T07:10:47.718Z,75.10
2023-07-10T07:13:15.755Z,74.36
2023-07-10T07:15:43.750Z,74.42
2023-07-10T07:18:12.936Z,72.86
2023-07-10T07:20:40.727Z,72.54
2023-07-10T07:23:08.524Z,72.29
2023-07-10T07:25:36.406Z,72.64
2023-07-10T07:28:05.057Z,72.34
2023-07-10T07:30:33.439Z,71.39
2023-07-10T07:33:01.606Z,70.52
2023-07-10T07:35:33.243Z,69.81
2023-07-10T07:38:01.081Z,69.33
2023-07-10T07:40:28.911Z,68.58
2023-07-10T07:42:56.682Z,67.38
2023-07-10T07:45:24.459Z,67.01
2023-07-10T07:47:52.714Z,66.63
2023-07-10T07:50:20.967Z,65.50
2023-07-10T07:52:50.218Z,65.96
2023-07-10T07:55:18.038Z,65.13
2023-07-10T07:57:46.994Z,65.09
2023-07-10T08:00:16.234Z,65.88
2023-07-10T08:02:44.083Z,66.67
2023-07-10T08:05:28.497Z,67.09
2023-07-10T08:08:01.080Z,65.70
2023-07-10T08:10:29.186Z,64.73
2023-07-10T08:12:57.024Z,64.94
2023-07-10T08:15:24.914Z,66.81
2023-07-10T08:17:53.112Z,65.82
2023-07-10T08:20:20.971Z,64.21
2023-07-10T08:22:48.742Z,65.06
2023-07-10T08:25:18.116Z,65.24
2023-07-10T08:27:46.923Z,64.03
2023-07-10T08:30:14.968Z,64.93
2023-07-10T08:32:42.839Z,64.68
2023-07-10T08:35:11.077Z,65.10
2023-07-10T08:37:38.902Z,61.47
2023-07-10T08:40:07.704Z,62.00
2023-07-10T08:42:37.100Z,61.99
2023-07-10T08:45:05.912Z,61.70
2023-07-10T08:47:38.656Z,62.19
2023-07-10T08:50:12.206Z,62.38
2023-07-10T08:52:44.049Z,62.28
2023-07-10T08:55:13.743Z,62.24
2023-07-10T08:57:46.573Z,64.03
2023-07-10T09:00:16.358Z,63.59
2023-07-10T09:02:46.376Z,63.44
2023-07-10T09:05:16.801Z,62.01
2023-07-10T09:07:45.996Z,63.63
2023-07-10T09:10:18.923Z,62.11
2023-07-10T09:12:50.766Z,62.85
2023-07-10T09:15:22.549Z,61.51
2023-07-10T09:17:58.957Z,60.50
2023-07-10T09:20:27.403Z,61.82
2023-07-10T09:22:59.057Z,59.42
2023-07-10T09:25:27.017Z,59.63
2023-07-10T09:27:57.183Z,58.97
2023-07-10T09:30:47.618Z,58.46
2023-07-10T09:33:15.460Z,58.12
2023-07-10T09:35:45.282Z,59.16
2023-07-10T09:38:14.206Z,57.05
2023-07-10T09:40:44.823Z,59.30
2023-07-10T09:43:17.211Z,57.24
2023-07-10T09:45:47.134Z,57.94
2023-07-10T09:48:18.112Z,55.17
2023-07-10T09:50:50.284Z,55.26
2023-07-10T09:53:32.228Z,55.92
2023-07-10T09:56:00.388Z,55.81
2023-07-10T09:58:29.899Z,55.12
2023-07-10T10:01:01.791Z,55.69
2023-07-10T10:03:34.150Z,54.84
2023-07-10T10:06:04.535Z,55.41
2023-07-10T10:08:33.687Z,55.08
2023-07-10T10:11:04.064Z,55.40
2023-07-10T10:13:35.832Z,55.28
2023-07-10T10:16:07.773Z,55.58
2023-07-10T10:18:44.455Z,54.46
2023-07-10T10:21:14.419Z,53.92
2023-07-10T10:23:44.025Z,53.95
2023-07-10T10:26:29.916Z,54.51
2023-07-10T10:29:10.200Z,54.59
2023-07-10T10:31:41.504Z,54.16
2023-07-10T10:34:13.993Z,54.26
2023-07-10T10:36:47.823Z,54.17
2023-07-10T10:39:22.383Z,54.38
2023-07-10T10:41:56.776Z,55.06
2023-07-10T10:44:42.910Z,54.36
2023-07-10T10:47:27.763Z,53.75
2023-07-10T10:50:05.193Z,54.23
2023-07-10T10:52:36.766Z,53.98
2023-07-10T10:55:21.268Z,53.24
2023-07-10T10:57:53.496Z,54.15
2023-07-10T11:00:30.635Z,52.41
2023-07-10T11:03:13.318Z,52.49
2023-07-10T11:05:44.682Z,52.46
2023-07-10T11:08:17.079Z,52.77
2023-07-10T11:10:45.514Z,52.58
2023-07-10T11:13:21.396Z,53.88
2023-07-10T11:15:51.219Z,54.06
2023-07-10T11:18:19.364Z,53.08
2023-07-10T11:20:47.285Z,52.09
2023-07-10T11:23:34.160Z,52.64
2023-07-10T11:26:04.243Z,54.11
2023-07-10T11:28:33.820Z,52.61
2023-07-10T11:32:31.244Z,54.06
2023-07-10T11:35:20.125Z,52.58
2023-07-10T11:38:16.832Z,51.04
2023-07-10T11:42:45.810Z,51.35
2023-07-10T11:45:15.106Z,50.62
2023-07-10T11:47:44.909Z,51.06
2023-07-10T11:50:22.170Z,50.19
2023-07-10T11:53:07.614Z,51.16
2023-07-10T11:55:43.661Z,51.04
2023-07-10T11:58:24.970Z,51.05
2023-07-10T12:00:57.863Z,51.10
2023-07-10T12:03:25.823Z,50.10
2023-07-10T12:05:53.672Z,50.33
2023-07-10T12:08:24.747Z,50.56
2023-07-10T12:10:52.993Z,50.83
2023-07-10T12:13:24.848Z,50.94
2023-07-10T12:15:55.155Z,50.47
2023-07-10T12:18:27.092Z,49.75
2023-07-10T12:20:56.093Z,50.34
2023-07-10T12:23:24.055Z,48.90
2023-07-10T12:25:53.418Z,48.37
2023-07-10T12:28:27.476Z,47.61
2023-07-10T12:30:57.520Z,47.99
2023-07-10T12:33:33.251Z,47.94
2023-07-10T12:36:06.770Z,47.35
2023-07-10T12:38:35.481Z,47.54
2023-07-10T12:41:04.626Z,47.62
2023-07-10T12:43:33.782Z,48.04
2023-07-10T12:46:03.346Z,46.70
2023-07-10T12:48:34.285Z,45.66
2023-07-10T12:51:04.278Z,46.52
2023-07-10T12:53:34.910Z,46.68
2023-07-10T12:56:10.130Z,46.87
2023-07-10T13:00:45.590Z,45.76
2023-07-10T13:04:33.652Z,46.18
2023-07-10T13:07:16.873Z,46.77
2023-07-10T13:09:53.270Z,47.16
2023-07-10T13:12:23.541Z,45.75
2023-07-10T13:14:52.413Z,45.38
2023-07-10T13:17:22.999Z,45.44
2023-07-10T13:20:07.800Z,45.72
2023-07-10T13:22:37.277Z,45.41
2023-07-10T13:25:07.055Z,45.56
2023-07-10T13:27:35.332Z,44.74
2023-07-10T13:30:03.143Z,44.83
2023-07-10T13:32:31.324Z,45.64
2023-07-10T13:35:00.628Z,44.75
2023-07-10T13:37:30.550Z,46.00
2023-07-10T13:39:58.704Z,46.25
2023-07-10T13:43:36.080Z,45.11
2023-07-10T13:46:17.217Z,45.07
2023-07-10T13:48:45.113Z,44.25
2023-07-10T13:51:13.456Z,44.45
2023-07-10T13:53:43.765Z,44.97
2023-07-10T13:56:16.355Z,44.71
2023-07-10T13:58:46.040Z,44.78
2023-07-10T14:01:15.035Z,44.44
2023-07-10T14:03:43.995Z,43.57
2023-07-10T14:06:29.062Z,43.62
2023-07-10T14:08:58.812Z,43.61
2023-07-10T14:11:27.527Z,44.03
2023-07-10T14:13:56.914Z,44.68
2023-07-10T14:16:27.791Z,43.54
2023-07-10T14:18:56.355Z,43.66
2023-07-10T14:21:24.347Z,43.33
2023-07-10T14:23:52.682Z,43.31
2023-07-10T14:26:23.109Z,43.56
2023-07-10T14:28:51.857Z,42.78
2023-07-10T14:31:21.687Z,42.82
2023-07-10T14:33:49.633Z,42.91
2023-07-10T14:36:19.002Z,42.18
2023-07-10T14:38:47.158Z,41.96
2023-07-10T14:41:18.346Z,41.45
2023-07-10T14:43:46.767Z,43.67
2023-07-10T14:46:16.835Z,42.10
2023-07-10T14:48:46.417Z,41.90
2023-07-10T14:51:14.290Z,42.00
2023-07-10T14:53:42.111Z,41.69
2023-07-10T14:56:15.550Z,42.10
2023-07-10T14:58:43.607Z,42.48
2023-07-10T15:01:16.388Z,41.63
2023-07-10T15:03:45.787Z,41.82
2023-07-10T15:06:24.192Z,40.75
2023-07-10T15:08:52.923Z,42.14
2023-07-10T15:11:21.526Z,41.82
2023-07-10T15:13:49.346Z,42.85
2023-07-10T15:16:19.995Z,42.26
2023-07-10T15:18:49.637Z,43.16
2023-07-10T15:21:19.266Z,43.08
2023-07-10T15:23:47.461Z,42.78
2023-07-10T15:26:16.276Z,43.68
2023-07-10T15:28:44.103Z,43.38
2023-07-10T15:31:13.025Z,42.52
2023-07-10T15:33:43.029Z,42.49
2023-07-10T15:36:17.894Z,44.12
2023-07-10T15:38:46.192Z,43.71
2023-07-10T15:41:22.006Z,43.26
2023-07-10T15:43:49.820Z,43.82
2023-07-10T15:46:17.813Z,43.20
2023-07-10T15:48:45.622Z,42.65
2023-07-10T15:51:18.448Z,44.53
2023-07-10T15:53:46.265Z,42.69
2023-07-10T15:56:13.996Z,41.83
2023-07-10T15:58:41.857Z,42.27
2023-07-10T16:01:13.889Z,42.29
2023-07-10T16:03:41.802Z,42.02
2023-07-10T16:06:09.661Z,43.31
2023-07-10T16:08:39.901Z,42.37
2023-07-10T16:11:16.082Z,41.99
2023-07-10T16:13:44.385Z,43.88
2023-07-10T16:16:12.372Z,42.93
2023-07-10T16:18:40.157Z,42.31
2023-07-10T16:21:15.397Z,41.77
2023-07-10T16:23:44.933Z,41.43
2023-07-10T16:26:13.172Z,41.02
2023-07-10T16:28:40.922Z,40.53
2023-07-10T16:31:13.760Z,40.92
2023-07-10T16:33:41.524Z,40.47
2023-07-10T16:36:13.629Z,41.28
2023-07-10T16:38:41.445Z,41.32
2023-07-10T16:41:16.209Z,41.11
2023-07-10T16:43:44.358Z,41.12
2023-07-10T16:46:13.025Z,40.64
2023-07-10T16:48:41.980Z,41.27
2023-07-10T16:51:17.419Z,41.30
2023-07-10T16:53:45.336Z,41.44
2023-07-10T16:56:16.822Z,41.24
2023-07-10T16:58:44.971Z,41.44
2023-07-10T17:01:18.959Z,41.01
2023-07-10T17:03:47.524Z,41.48
2023-07-10T17:06:40.360Z,42.11
2023-07-10T17:09:10.104Z,42.22
2023-07-10T17:11:39.224Z,40.88
2023-07-10T17:14:10.863Z,40.90
2023-07-10T17:16:38.732Z,41.86
2023-07-10T17:19:06.695Z,41.35
2023-07-10T17:21:34.567Z,41.93
2023-07-10T17:24:03.849Z,41.46
2023-07-10T17:26:31.756Z,41.81
2023-07-10T17:28:59.586Z,42.10
2023-07-10T17:31:31.640Z,42.13
2023-07-10T17:34:00.876Z,42.01
2023-07-10T17:36:29.864Z,41.25
2023-07-10T17:39:09.053Z,42.21
2023-07-10T17:41:47.138Z,41.56
2023-07-10T17:44:19.544Z,42.39
2023-07-10T17:46:47.484Z,42.53
2023-07-10T17:49:15.427Z,41.45
2023-07-10T17:51:43.345Z,41.96
2023-07-10T17:54:19.884Z,41.99
2023-07-10T17:56:49.438Z,41.94
2023-07-10T17:59:17.390Z,42.45
2023-07-10T18:01:46.243Z,42.86
2023-07-10T18:04:16.471Z,42.34
2023-07-10T18:06:44.516Z,42.52
2023-07-10T18:09:20.051Z,43.27
2023-07-10T18:11:49.583Z,43.59
2023-07-10T18:14:17.531Z,43.69
2023-07-10T18:16:45.507Z,44.57
2023-07-10T18:19:15.440Z,45.04
2023-07-10T18:21:45.341Z,45.31
2023-07-10T18:24:20.906Z,45.36
2023-07-10T18:26:50.317Z,46.07
2023-07-10T18:29:18.171Z,45.78
2023-07-10T18:31:46.054Z,46.28
2023-07-10T18:34:16.737Z,46.80
2023-07-10T18:36:44.511Z,46.52
2023-07-10T18:39:12.364Z,47.42
2023-07-10T18:41:42.128Z,46.55
2023-07-10T18:44:14.299Z,46.47
2023-07-10T18:46:42.150Z,46.82
2023-07-10T18:49:16.492Z,47.29
2023-07-10T18:51:45.073Z,47.74
2023-07-10T18:54:15.470Z,48.13
2023-07-10T18:56:43.245Z,48.14
2023-07-10T18:59:21.230Z,47.61
2023-07-10T19:01:51.892Z,48.56
2023-07-10T19:04:21.808Z,48.58
2023-07-10T19:06:51.788Z,48.56
2023-07-10T19:09:21.388Z,50.11
2023-07-10T19:11:49.412Z,49.38
2023-07-10T19:14:22.467Z,49.19
2023-07-10T19:16:51.051Z,48.52
2023-07-10T19:19:20.788Z,48.83
2023-07-10T19:22:09.759Z,48.22
2023-07-10T19:24:38.117Z,47.96
2023-07-10T19:27:06.748Z,48.15
2023-07-10T19:29:34.605Z,48.33
2023-07-10T19:32:03.879Z,48.70
2023-07-10T19:34:32.972Z,48.61
2023-07-10T19:37:00.856Z,48.93
2023-07-10T19:39:31.913Z,49.23
2023-07-10T19:42:00.552Z,49.04
2023-07-10T19:44:46.063Z,49.41
2023-07-10T19:47:15.322Z,49.14
2023-07-10T19:49:43.150Z,49.30
2023-07-10T19:52:14.540Z,49.83
2023-07-10T19:54:44.593Z,49.87
2023-07-10T19:57:19.594Z,49.96
2023-07-10T19:59:47.484Z,50.04
2023-07-10T20:02:16.822Z,50.39
2023-07-10T20:04:44.730Z,50.61
2023-07-10T20:07:13.747Z,50.48
2023-07-10T20:09:42.929Z,50.99
2023-07-10T20:12:18.522Z,51.20
2023-07-10T20:14:46.477Z,50.94
2023-07-10T20:17:30.182Z,51.22
2023-07-10T20:19:59.160Z,51.16
2023-07-10T20:22:27.677Z,51.65
2023-07-10T20:24:57.712Z,51.80
2023-07-10T20:27:25.585Z,51.99
2023-07-10T20:29:53.411Z,52.33
2023-07-10T20:32:21.280Z,52.58
2023-07-10T20:34:49.791Z,52.85
2023-07-10T20:37:18.389Z,53.39
2023-07-10T20:39:46.235Z,53.41
2023-07-10T20:42:16.037Z,53.59
2023-07-10T20:44:43.815Z,53.93
2023-07-10T20:47:15.755Z,54.30
2023-07-10T20:49:48.684Z,54.17
2023-07-10T20:52:18.394Z,54.50
2023-07-10T20:54:48.200Z,54.63
2023-07-10T20:57:17.441Z,54.64
2023-07-10T20:59:48.340Z,54.95
2023-07-10T21:02:19.068Z,55.05
2023-07-10T21:04:47.243Z,55.00
2023-07-10T21:07:17.201Z,54.94
2023-07-10T21:09:47.969Z,54.38
2023-07-10T21:12:20.042Z,54.05
2023-07-10T21:14:48.413Z,53.93
2023-07-10T21:17:18.354Z,53.68
2023-07-10T21:19:46.572Z,53.53
2023-07-10T21:22:15.438Z,53.38
2023-07-10T21:24:45.619Z,53.69
2023-07-10T21:27:23.444Z,53.98
2023-07-10T21:29:51.456Z,54.80
2023-07-10T21:32:20.873Z,54.38
2023-07-10T21:34:48.902Z,54.59
2023-07-10T21:37:16.637Z,54.95
2023-07-10T21:39:44.710Z,55.10
2023-07-10T21:42:20.583Z,55.09
2023-07-10T21:44:48.438Z,55.34
2023-07-10T21:47:16.385Z,55.06
2023-07-10T21:49:44.188Z,55.57
2023-07-10T21:52:12.042Z,55.09
2023-07-10T21:54:39.883Z,55.49
2023-07-10T21:57:07.744Z,55.56
2023-07-10T21:59:37.875Z,54.88
2023-07-10T22:02:05.924Z,55.05
2023-07-10T22:04:33.756Z,54.97
2023-07-10T22:07:01.567Z,54.83
2023-07-10T22:09:29.294Z,55.16
2023-07-10T22:11:57.120Z,55.72
2023-07-10T22:14:24.996Z,55.31
2023-07-10T22:17:05.955Z,55.04
2023-07-10T22:19:38.627Z,55.86
2023-07-10T22:22:06.819Z,56.13
2023-07-10T22:24:34.514Z,55.77
2023-07-10T22:27:02.308Z,56.15
2023-07-10T22:29:30.102Z,56.43
2023-07-10T22:31:59.344Z,56.54
2023-07-10T22:34:27.463Z,57.06
2023-07-10T22:36:55.335Z,57.44
2023-07-10T22:39:23.345Z,57.44
2023-07-10T22:41:51.073Z,57.32
2023-07-10T22:44:19.648Z,57.59
2023-07-10T22:46:48.392Z,58.02
2023-07-10T22:49:18.429Z,58.13
2023-07-10T22:51:46.318Z,58.09
2023-07-10T22:54:14.283Z,58.61
2023-07-10T22:56:45.071Z,58.78
2023-07-10T22:59:13.529Z,58.44
2023-07-10T23:01:43.873Z,58.21
2023-07-10T23:04:12.020Z,58.64
2023-07-10T23:06:41.241Z,59.01
2023-07-10T23:09:10.654Z,58.78
2023-07-10T23:11:38.478Z,57.77
2023-07-10T23:14:06.387Z,57.92
2023-07-10T23:16:34.354Z,57.58
2023-07-10T23:19:02.532Z,57.74
2023-07-10T23:21:30.793Z,57.26
2023-07-10T23:24:01.006Z,57.19
2023-07-10T23:26:29.034Z,57.44
2023-07-10T23:28:56.834Z,57.41
2023-07-10T23:31:26.652Z,57.27
2023-07-10T23:33:55.202Z,57.40
2023-07-10T23:36:24.611Z,57.46
2023-07-10T23:38:52.899Z,57.20
2023-07-10T23:41:22.289Z,56.99
2023-07-10T23:43:49.981Z,56.61
2023-07-10T23:46:17.726Z,56.75
2023-07-10T23:48:46.284Z,56.66
2023-07-10T23:51:14.108Z,56.81
2023-07-10T23:53:41.929Z,56.13
2023-07-10T23:56:10.572Z,56.13
2023-07-10T23:58:39.757Z,56.13
